Time;durP1;ratioP1;P1;durP2;ratioP2;P2;SDS_P1;SDS_P2;PMS_P1;PMS_P2;Temp;Humidity;BMP_temperature;BMP_pressure;BME280_temperature;BME280_humidity;BME280_pressure;Samples;Min_cycle;Max_cycle;Signal;HPM_P1;HPM_P2
2022/06/18 00:01:48;;;;;;;;;;;25.20;46.60;;;;;;5038128;28;19960;-75
2022/06/18 00:04:15;;;;;;;;;;;25.20;46.70;;;;;;5040723;28;20335;-75
2022/06/18 00:06:48;;;;;;;;;;;25.20;46.80;;;;;;5037035;28;19936;-77
2022/06/18 00:09:15;;;;;;;;;;;25.10;46.80;;;;;;5039545;28;20458;-77
2022/06/18 00:14:25;;;;;;;;;;;25.10;46.90;;;;;;5040806;28;19944;-75
2022/06/18 00:16:52;;;;;;;;;;;25.10;46.90;;;;;;5036985;28;19936;-77
2022/06/18 00:19:18;;;;;;;;;;;25.00;46.90;;;;;;5039719;28;20478;-75
2022/06/18 00:21:47;;;;;;;;;;;25.00;47.10;;;;;;5041779;28;20377;-77
2022/06/18 00:24:15;;;;;;;;;;;24.90;47.00;;;;;;5039904;28;20021;-76
2022/06/18 00:26:41;;;;;;;;;;;24.90;47.30;;;;;;5030850;28;19937;-74
2022/06/18 00:29:10;;;;;;;;;;;24.90;47.30;;;;;;5035014;28;19936;-75
2022/06/18 00:31:36;;;;;;;;;;;24.80;47.40;;;;;;5034919;28;19929;-75
2022/06/18 00:34:03;;;;;;;;;;;24.70;47.50;;;;;;5038357;28;19929;-77
2022/06/18 00:36:29;;;;;;;;;;;24.70;47.40;;;;;;5038429;28;19928;-75
2022/06/18 00:38:57;;;;;;;;;;;24.70;47.60;;;;;;5039073;28;19968;-77
2022/06/18 00:41:25;;;;;;;;;;;24.70;47.60;;;;;;5039991;28;19928;-74
2022/06/18 00:43:55;;;;;;;;;;;24.60;47.60;;;;;;5041175;28;19935;-75
2022/06/18 00:46:23;;;;;;;;;;;24.50;47.70;;;;;;5040050;28;19979;-76
2022/06/18 00:48:54;;;;;;;;;;;24.50;47.70;;;;;;5038770;28;19929;-76
2022/06/18 00:51:25;;;;;;;;;;;24.50;47.90;;;;;;5039587;28;20010;-75
2022/06/18 00:53:53;;;;;;;;;;;24.40;47.90;;;;;;5039138;28;19978;-75
2022/06/18 00:56:24;;;;;;;;;;;24.40;48.10;;;;;;5039980;28;19936;-75
2022/06/18 00:58:54;;;;;;;;;;;24.30;48.00;;;;;;5037794;28;19929;-75
2022/06/18 01:01:22;;;;;;;;;;;24.30;48.00;;;;;;5039740;28;19933;-75
2022/06/18 01:03:50;;;;;;;;;;;24.30;48.10;;;;;;5038430;28;19936;-75
2022/06/18 01:06:18;;;;;;;;;;;24.30;48.80;;;;;;5040035;28;19936;-78
2022/06/18 01:08:45;;;;;;;;;;;24.20;48.20;;;;;;5038754;28;19933;-78
2022/06/18 01:11:15;;;;;;;;;;;24.20;48.40;;;;;;5040358;28;19925;-76
2022/06/18 01:13:43;;;;;;;;;;;24.10;48.40;;;;;;5042561;28;19937;-75
2022/06/18 01:16:10;;;;;;;;;;;24.10;48.50;;;;;;5038505;28;19935;-76
2022/06/18 01:18:38;;;;;;;;;;;24.00;48.40;;;;;;5039103;28;19936;-75
2022/06/18 01:21:08;;;;;;;;;;;24.00;48.50;;;;;;5041554;28;19933;-76
2022/06/18 01:23:37;;;;;;;;;;;24.00;48.50;;;;;;5045057;28;19932;-76
2022/06/18 01:26:07;;;;;;;;;;;24.00;48.60;;;;;;5042295;28;19928;-77
2022/06/18 01:28:33;;;;;;;;;;;23.90;48.50;;;;;;5044211;28;19928;-77
2022/06/18 01:31:00;;;;;;;;;;;23.90;48.50;;;;;;5043660;28;19936;-75
2022/06/18 01:33:26;;;;;;;;;;;23.90;48.70;;;;;;5043010;28;20697;-78
2022/06/18 01:35:54;;;;;;;;;;;23.80;48.70;;;;;;5041804;28;19940;-75
2022/06/18 01:38:24;;;;;;;;;;;23.80;48.90;;;;;;5039715;28;19963;-76
2022/06/18 01:40:52;;;;;;;;;;;23.70;48.80;;;;;;5043505;28;19928;-75
2022/06/18 01:43:21;;;;;;;;;;;23.70;48.70;;;;;;5044007;28;19979;-75
2022/06/18 01:45:51;;;;;;;;;;;23.70;48.70;;;;;;5044199;28;19971;-75
2022/06/18 01:48:20;;;;;;;;;;;23.60;48.80;;;;;;5043227;28;20462;-77
2022/06/18 01:50:48;;;;;;;;;;;23.60;48.80;;;;;;5041606;28;19947;-77
2022/06/18 01:53:17;;;;;;;;;;;23.60;49.00;;;;;;5045545;28;19929;-76
2022/06/18 01:55:46;;;;;;;;;;;23.60;48.90;;;;;;5039968;28;19933;-77
2022/06/18 01:58:14;;;;;;;;;;;23.50;48.90;;;;;;5041941;28;19932;-76
2022/06/18 02:00:43;;;;;;;;;;;23.40;49.00;;;;;;5040637;28;20518;-77
2022/06/18 02:03:10;;;;;;;;;;;23.40;48.90;;;;;;5042894;28;19932;-77
2022/06/18 02:05:37;;;;;;;;;;;23.40;48.90;;;;;;5042725;28;19932;-75
2022/06/18 02:08:04;;;;;;;;;;;23.30;48.80;;;;;;5042547;28;19933;-78
2022/06/18 02:10:33;;;;;;;;;;;23.30;48.90;;;;;;5043755;28;19928;-75
2022/06/18 02:13:02;;;;;;;;;;;23.30;48.90;;;;;;5041491;28;19932;-76
2022/06/18 02:15:30;;;;;;;;;;;23.20;48.90;;;;;;5041271;28;19956;-78
2022/06/18 02:18:00;;;;;;;;;;;23.20;48.90;;;;;;5039975;28;20042;-77
2022/06/18 02:23:30;;;;;;;;;;;23.10;49.00;;;;;;5033500;28;20364;-75
2022/06/18 02:25:57;;;;;;;;;;;23.10;49.10;;;;;;5040029;28;20015;-75
2022/06/18 02:28:24;;;;;;;;;;;23.00;49.10;;;;;;5043831;28;19931;-75
2022/06/18 02:30:52;;;;;;;;;;;23.00;49.20;;;;;;5043389;28;19952;-75
2022/06/18 02:33:24;;;;;;;;;;;23.00;49.20;;;;;;5040162;28;19940;-75
2022/06/18 02:35:50;;;;;;;;;;;23.00;49.20;;;;;;5042751;28;19928;-75
2022/06/18 02:38:18;;;;;;;;;;;22.90;49.20;;;;;;5040615;28;20306;-78
2022/06/18 02:40:45;;;;;;;;;;;22.90;49.30;;;;;;5046479;28;19924;-77
2022/06/18 02:43:12;;;;;;;;;;;22.90;49.30;;;;;;5047501;28;19929;-75
2022/06/18 02:45:39;;;;;;;;;;;22.80;49.50;;;;;;5043986;28;20290;-76
2022/06/18 02:48:08;;;;;;;;;;;22.80;49.50;;;;;;5043416;28;19939;-75
2022/06/18 02:50:37;;;;;;;;;;;22.80;49.50;;;;;;5043577;28;19974;-76
2022/06/18 02:53:04;;;;;;;;;;;22.70;49.60;;;;;;5039633;28;19933;-76
2022/06/18 02:55:32;;;;;;;;;;;22.70;49.60;;;;;;5038113;28;20376;-75
2022/06/18 02:58:01;;;;;;;;;;;22.60;49.70;;;;;;5041557;28;19937;-75
2022/06/18 03:00:27;;;;;;;;;;;22.60;49.80;;;;;;5039487;28;19951;-77
2022/06/18 03:02:54;;;;;;;;;;;22.60;49.90;;;;;;5040613;28;19925;-75
2022/06/18 03:05:22;;;;;;;;;;;22.50;49.80;;;;;;5042619;28;19929;-75
2022/06/18 03:07:50;;;;;;;;;;;22.50;49.90;;;;;;5042851;28;20576;-74
2022/06/18 03:13:01;;;;;;;;;;;22.40;50.00;;;;;;5041867;28;19931;-74
2022/06/18 03:15:30;;;;;;;;;;;22.40;50.10;;;;;;5038865;28;19936;-77
2022/06/18 03:17:57;;;;;;;;;;;22.40;50.20;;;;;;5045493;28;19929;-78
2022/06/18 03:20:26;;;;;;;;;;;22.30;50.20;;;;;;5042819;28;19936;-75
2022/06/18 03:22:54;;;;;;;;;;;22.30;50.30;;;;;;5042682;28;19929;-77
2022/06/18 03:25:20;;;;;;;;;;;22.30;50.40;;;;;;5039688;28;19940;-74
2022/06/18 03:27:47;;;;;;;;;;;22.30;50.50;;;;;;5041755;28;19933;-77
2022/06/18 03:30:13;;;;;;;;;;;22.20;50.50;;;;;;5039671;28;19933;-74
2022/06/18 03:32:40;;;;;;;;;;;22.20;50.50;;;;;;5044261;28;20023;-77
2022/06/18 03:35:07;;;;;;;;;;;22.20;50.60;;;;;;5040241;28;19935;-75
2022/06/18 03:37:34;;;;;;;;;;;22.20;50.70;;;;;;5042594;28;20023;-77
2022/06/18 03:40:01;;;;;;;;;;;22.10;50.70;;;;;;5041634;28;20003;-74
2022/06/18 03:42:28;;;;;;;;;;;22.10;50.80;;;;;;5044894;28;19936;-76
2022/06/18 03:44:54;;;;;;;;;;;22.10;51.00;;;;;;5044981;28;19943;-74
2022/06/18 03:47:23;;;;;;;;;;;22.00;50.90;;;;;;5040079;28;19940;-75
2022/06/18 03:49:49;;;;;;;;;;;22.00;50.90;;;;;;5039899;28;20043;-74
2022/06/18 03:52:16;;;;;;;;;;;22.00;51.00;;;;;;5040984;28;19947;-77
2022/06/18 03:54:42;;;;;;;;;;;22.00;51.10;;;;;;5039652;28;19928;-75
2022/06/18 03:57:14;;;;;;;;;;;22.00;51.00;;;;;;5042105;28;20589;-75
2022/06/18 03:59:41;;;;;;;;;;;21.90;50.90;;;;;;5037349;28;19932;-75
2022/06/18 04:02:09;;;;;;;;;;;21.90;51.00;;;;;;5039431;28;19933;-76
2022/06/18 04:04:35;;;;;;;;;;;21.90;51.10;;;;;;5038680;28;19939;-74
2022/06/18 04:07:02;;;;;;;;;;;21.80;51.30;;;;;;5040438;28;19933;-74
2022/06/18 04:09:29;;;;;;;;;;;21.80;51.30;;;;;;5040088;28;19947;-76
2022/06/18 04:11:55;;;;;;;;;;;21.80;51.50;;;;;;5039584;28;19947;-75
2022/06/18 04:14:23;;;;;;;;;;;21.70;51.50;;;;;;5038137;28;20812;-76
2022/06/18 04:16:50;;;;;;;;;;;21.70;51.60;;;;;;5038395;28;19925;-75
2022/06/18 04:19:16;;;;;;;;;;;21.70;51.60;;;;;;5036926;28;19929;-75
2022/06/18 04:21:43;;;;;;;;;;;21.70;51.70;;;;;;5040135;28;19936;-75
2022/06/18 04:24:10;;;;;;;;;;;21.70;51.80;;;;;;5038539;28;19933;-75
2022/06/18 04:26:36;;;;;;;;;;;21.60;51.90;;;;;;5036953;28;19936;-74
2022/06/18 04:29:03;;;;;;;;;;;21.60;52.00;;;;;;5036894;28;19929;-74
2022/06/18 04:31:31;;;;;;;;;;;21.60;52.10;;;;;;5037836;28;19929;-75
2022/06/18 04:33:57;;;;;;;;;;;21.60;52.20;;;;;;5044233;28;19928;-77
2022/06/18 04:36:32;;;;;;;;;;;21.50;52.20;;;;;;5036508;28;19933;-75
2022/06/18 04:38:59;;;;;;;;;;;21.50;52.40;;;;;;5041337;28;19936;-77
2022/06/18 04:41:25;;;;;;;;;;;21.50;52.50;;;;;;5034817;28;19933;-75
2022/06/18 04:43:52;;;;;;;;;;;21.50;52.60;;;;;;5041671;28;19979;-76
2022/06/18 04:46:18;;;;;;;;;;;21.40;52.70;;;;;;5035493;28;19929;-74
2022/06/18 04:48:46;;;;;;;;;;;21.40;52.80;;;;;;5040276;28;20027;-76
2022/06/18 04:51:13;;;;;;;;;;;21.40;52.90;;;;;;5039288;28;19933;-74
2022/06/18 04:53:39;;;;;;;;;;;21.40;53.10;;;;;;5037171;28;19928;-75
2022/06/18 04:56:06;;;;;;;;;;;21.40;53.10;;;;;;5039450;28;19936;-74
2022/06/18 04:58:33;;;;;;;;;;;21.40;53.30;;;;;;5041600;28;19945;-77
2022/06/18 05:00:59;;;;;;;;;;;21.30;53.30;;;;;;5041722;28;19940;-74
2022/06/18 05:03:26;;;;;;;;;;;21.30;53.40;;;;;;5045528;28;19933;-77
2022/06/18 05:05:54;;;;;;;;;;;21.30;53.60;;;;;;5045544;28;20371;-76
2022/06/18 05:08:21;;;;;;;;;;;21.30;53.80;;;;;;5040261;28;20612;-74
2022/06/18 05:10:47;;;;;;;;;;;21.30;53.90;;;;;;5039543;28;19933;-74
2022/06/18 05:13:14;;;;;;;;;;;21.30;54.00;;;;;;5041550;28;19935;-74
2022/06/18 05:15:41;;;;;;;;;;;21.30;54.10;;;;;;5038696;28;19939;-77
2022/06/18 05:18:08;;;;;;;;;;;21.30;54.20;;;;;;5038037;28;19933;-74
2022/06/18 05:20:34;;;;;;;;;;;21.20;54.20;;;;;;5039571;28;19939;-75
2022/06/18 05:23:02;;;;;;;;;;;21.20;54.30;;;;;;5037913;28;19932;-75
2022/06/18 05:25:29;;;;;;;;;;;21.30;54.50;;;;;;5041755;28;19981;-76
2022/06/18 05:27:56;;;;;;;;;;;21.20;54.50;;;;;;5044736;28;19932;-72
2022/06/18 05:30:25;;;;;;;;;;;21.20;54.50;;;;;;5044052;28;19933;-71
2022/06/18 05:32:52;;;;;;;;;;;21.20;54.60;;;;;;5046442;28;20550;-70
2022/06/18 05:35:18;;;;;;;;;;;21.20;54.60;;;;;;5044634;28;19935;-69
2022/06/18 05:37:46;;;;;;;;;;;21.20;54.70;;;;;;5044686;28;20766;-74
2022/06/18 05:40:15;;;;;;;;;;;21.20;54.60;;;;;;5044697;28;19925;-71
2022/06/18 05:42:41;;;;;;;;;;;21.20;54.80;;;;;;5046081;28;20324;-72
2022/06/18 05:45:09;;;;;;;;;;;21.20;54.70;;;;;;5044622;28;20896;-70
2022/06/18 05:47:35;;;;;;;;;;;21.20;54.80;;;;;;5041590;28;19983;-70
2022/06/18 05:50:03;;;;;;;;;;;21.20;54.80;;;;;;5039136;28;19935;-69
2022/06/18 05:52:30;;;;;;;;;;;21.20;54.90;;;;;;5039974;28;19940;-72
2022/06/18 05:54:56;;;;;;;;;;;21.30;54.90;;;;;;5040980;28;19972;-71
2022/06/18 05:57:25;;;;;;;;;;;21.30;54.90;;;;;;5039717;28;19936;-71
2022/06/18 05:59:51;;;;;;;;;;;21.30;54.90;;;;;;5039165;28;19933;-69
2022/06/18 06:02:19;;;;;;;;;;;21.30;54.90;;;;;;5040121;28;19929;-69
2022/06/18 06:04:46;;;;;;;;;;;21.30;54.90;;;;;;5036512;28;19932;-72
2022/06/18 06:07:14;;;;;;;;;;;21.30;54.90;;;;;;5040108;28;20658;-71
2022/06/18 06:12:25;;;;;;;;;;;21.30;55.00;;;;;;5039298;28;20310;-68
2022/06/18 06:14:52;;;;;;;;;;;21.30;55.00;;;;;;5041378;28;20401;-73
2022/06/18 06:17:21;;;;;;;;;;;21.30;55.00;;;;;;5039576;28;19951;-68
2022/06/18 06:19:47;;;;;;;;;;;21.30;54.90;;;;;;5038110;28;19976;-69
2022/06/18 06:22:14;;;;;;;;;;;21.40;55.00;;;;;;5039865;28;19940;-70
2022/06/18 06:24:41;;;;;;;;;;;21.40;55.00;;;;;;5038585;28;19936;-69
2022/06/18 06:27:08;;;;;;;;;;;21.40;55.30;;;;;;5034344;28;19940;-76
2022/06/18 06:29:35;;;;;;;;;;;21.40;55.80;;;;;;5040592;28;19928;-75
2022/06/18 06:32:02;;;;;;;;;;;21.40;55.90;;;;;;5043999;28;20565;-78
2022/06/18 06:34:29;;;;;;;;;;;21.40;55.90;;;;;;5040822;28;19936;-77
2022/06/18 06:36:56;;;;;;;;;;;21.50;56.00;;;;;;5044385;28;19964;-76
2022/06/18 06:39:22;;;;;;;;;;;21.50;55.90;;;;;;5041760;28;20389;-69
2022/06/18 06:41:49;;;;;;;;;;;21.50;56.00;;;;;;5042106;28;19978;-68
2022/06/18 06:44:16;;;;;;;;;;;21.50;55.90;;;;;;5044033;28;19940;-70
2022/06/18 06:46:44;;;;;;;;;;;21.60;55.70;;;;;;5042985;28;19929;-70
2022/06/18 06:49:10;;;;;;;;;;;21.60;55.60;;;;;;5043909;28;19948;-68
2022/06/18 06:51:38;;;;;;;;;;;21.60;55.50;;;;;;5041282;28;19933;-67
2022/06/18 06:54:05;;;;;;;;;;;21.60;55.30;;;;;;5044199;28;19944;-70
2022/06/18 06:59:15;;;;;;;;;;;21.70;55.20;;;;;;5042428;28;19939;-68
2022/06/18 07:01:43;;;;;;;;;;;21.70;55.30;;;;;;5041513;28;19933;-70
2022/06/18 07:04:11;;;;;;;;;;;21.80;55.50;;;;;;5042432;28;19928;-71
2022/06/18 07:06:37;;;;;;;;;;;21.80;55.60;;;;;;5041206;28;19929;-71
2022/06/18 07:09:05;;;;;;;;;;;21.80;55.60;;;;;;5040140;28;19936;-72
2022/06/18 07:11:33;;;;;;;;;;;21.90;55.70;;;;;;5041926;28;19936;-68
2022/06/18 07:13:59;;;;;;;;;;;21.90;55.80;;;;;;5043174;28;19932;-69
2022/06/18 07:16:26;;;;;;;;;;;21.90;55.80;;;;;;5042957;28;19933;-68
2022/06/18 07:18:55;;;;;;;;;;;22.00;55.90;;;;;;5041324;28;19932;-69
2022/06/18 07:21:22;;;;;;;;;;;22.00;55.90;;;;;;5042317;28;19943;-67
2022/06/18 07:23:49;;;;;;;;;;;22.00;55.90;;;;;;5039709;28;20703;-69
2022/06/18 07:26:18;;;;;;;;;;;22.00;56.00;;;;;;5039873;28;19932;-68
2022/06/18 07:28:44;;;;;;;;;;;22.10;56.00;;;;;;5041597;28;19944;-70
2022/06/18 07:31:14;;;;;;;;;;;22.10;56.20;;;;;;5041770;28;19929;-71
2022/06/18 07:33:41;;;;;;;;;;;22.10;56.10;;;;;;5041883;28;19940;-71
2022/06/18 07:36:10;;;;;;;;;;;22.20;56.10;;;;;;5042171;28;20628;-70
2022/06/18 07:38:36;;;;;;;;;;;22.20;56.00;;;;;;5039628;28;19933;-68
2022/06/18 07:41:03;;;;;;;;;;;22.20;55.80;;;;;;5042988;28;20423;-69
2022/06/18 07:43:31;;;;;;;;;;;22.30;55.70;;;;;;5041718;28;19929;-69
2022/06/18 07:45:58;;;;;;;;;;;22.30;55.60;;;;;;5042105;28;19928;-70
2022/06/18 07:48:25;;;;;;;;;;;22.40;55.90;;;;;;5041998;28;19986;-67
2022/06/18 07:50:51;;;;;;;;;;;22.40;56.00;;;;;;5043601;28;19932;-68
2022/06/18 07:53:21;;;;;;;;;;;22.40;55.70;;;;;;5043060;28;19962;-68
2022/06/18 07:55:47;;;;;;;;;;;22.40;55.60;;;;;;5042237;28;19929;-69
2022/06/18 07:58:14;;;;;;;;;;;22.50;55.70;;;;;;5040900;28;20292;-67
2022/06/18 08:00:42;;;;;;;;;;;22.50;55.70;;;;;;5041094;28;20557;-70
2022/06/18 08:03:09;;;;;;;;;;;22.50;55.70;;;;;;5038506;28;20502;-69
2022/06/18 08:05:36;;;;;;;;;;;22.60;55.60;;;;;;5039888;28;19936;-68
2022/06/18 08:08:03;;;;;;;;;;;22.60;55.60;;;;;;5040656;28;20015;-71
2022/06/18 08:10:32;;;;;;;;;;;22.70;55.40;;;;;;5042993;28;19935;-70
2022/06/18 08:12:58;;;;;;;;;;;22.70;55.40;;;;;;5041023;28;19932;-69
2022/06/18 08:15:25;;;;;;;;;;;22.80;55.60;;;;;;5040882;28;19937;-70
2022/06/18 08:17:51;;;;;;;;;;;22.80;55.80;;;;;;5041740;28;19936;-68
2022/06/18 08:20:18;;;;;;;;;;;22.80;56.00;;;;;;5041910;28;19929;-70
2022/06/18 08:22:47;;;;;;;;;;;22.90;56.00;;;;;;5042653;28;19935;-72
2022/06/18 08:25:15;;;;;;;;;;;22.90;56.00;;;;;;5040628;28;20027;-71
2022/06/18 08:27:43;;;;;;;;;;;23.00;56.10;;;;;;5041467;28;20341;-68
2022/06/18 08:30:11;;;;;;;;;;;23.00;55.90;;;;;;5040876;28;19929;-67
2022/06/18 08:32:38;;;;;;;;;;;23.10;56.00;;;;;;5041940;28;20024;-68
2022/06/18 08:35:05;;;;;;;;;;;23.10;55.80;;;;;;5041376;28;21732;-70
2022/06/18 08:37:32;;;;;;;;;;;23.10;55.70;;;;;;5040178;28;19929;-69
2022/06/18 08:40:00;;;;;;;;;;;23.20;55.60;;;;;;5041800;28;19929;-68
2022/06/18 08:42:33;;;;;;;;;;;23.20;55.40;;;;;;5042939;28;19972;-69
2022/06/18 08:45:10;;;;;;;;;;;23.30;55.20;;;;;;5041427;28;20396;-68
2022/06/18 08:47:54;;;;;;;;;;;23.40;55.20;;;;;;5037094;28;19933;-67
2022/06/18 08:50:26;;;;;;;;;;;23.40;55.10;;;;;;5040715;28;20002;-69
2022/06/18 08:53:01;;;;;;;;;;;23.40;55.00;;;;;;5041515;28;20009;-67
2022/06/18 08:55:32;;;;;;;;;;;23.50;55.00;;;;;;5041808;28;20649;-68
2022/06/18 08:58:02;;;;;;;;;;;23.50;54.80;;;;;;5039934;28;19925;-72
2022/06/18 09:00:32;;;;;;;;;;;23.60;54.70;;;;;;5040217;28;19935;-70
2022/06/18 09:03:02;;;;;;;;;;;23.60;54.60;;;;;;5040351;28;19929;-69
2022/06/18 09:05:34;;;;;;;;;;;23.70;54.40;;;;;;5040062;28;20565;-69
2022/06/18 09:08:12;;;;;;;;;;;23.70;54.40;;;;;;5039137;28;19929;-69
2022/06/18 09:10:45;;;;;;;;;;;23.80;54.20;;;;;;5040236;28;19928;-68
2022/06/18 09:13:16;;;;;;;;;;;23.90;54.00;;;;;;5042154;28;20030;-72
2022/06/18 09:15:46;;;;;;;;;;;23.90;53.90;;;;;;5036809;28;19933;-69
2022/06/18 09:18:16;;;;;;;;;;;24.00;53.60;;;;;;5038921;28;20456;-71
2022/06/18 09:20:45;;;;;;;;;;;24.00;53.40;;;;;;5038896;28;19933;-67
2022/06/18 09:23:16;;;;;;;;;;;24.10;53.30;;;;;;5036114;28;19933;-68
2022/06/18 09:25:44;;;;;;;;;;;24.20;53.00;;;;;;5038997;28;19940;-70
2022/06/18 09:28:15;;;;;;;;;;;24.20;52.80;;;;;;5038362;28;19929;-67
2022/06/18 09:30:44;;;;;;;;;;;24.30;53.00;;;;;;5039162;28;19958;-68
2022/06/18 09:33:13;;;;;;;;;;;24.30;52.90;;;;;;5039559;28;19932;-70
2022/06/18 09:35:43;;;;;;;;;;;24.40;52.80;;;;;;5039083;28;19937;-71
2022/06/18 09:38:13;;;;;;;;;;;24.50;52.70;;;;;;5037969;28;19932;-71
2022/06/18 09:40:44;;;;;;;;;;;24.50;52.50;;;;;;5040936;28;19929;-73
2022/06/18 09:43:14;;;;;;;;;;;24.60;52.50;;;;;;5045084;28;19932;-69
2022/06/18 09:45:44;;;;;;;;;;;24.70;52.30;;;;;;5041419;28;20281;-71
2022/06/18 09:48:12;;;;;;;;;;;24.70;52.10;;;;;;5043400;28;20597;-72
2022/06/18 09:50:41;;;;;;;;;;;24.80;51.30;;;;;;5044902;28;20325;-69
2022/06/18 09:53:12;;;;;;;;;;;24.90;51.00;;;;;;5043594;28;21506;-72
2022/06/18 09:55:41;;;;;;;;;;;24.90;50.20;;;;;;5041790;28;19929;-69
2022/06/18 09:58:10;;;;;;;;;;;25.00;50.70;;;;;;5045225;28;19932;-68
2022/06/18 10:00:36;;;;;;;;;;;25.10;50.70;;;;;;5044120;28;19936;-68
2022/06/18 10:03:05;;;;;;;;;;;25.20;50.10;;;;;;5043845;28;19940;-72
2022/06/18 10:08:20;;;;;;;;;;;25.30;49.80;;;;;;5043948;28;19936;-68
2022/06/18 10:10:50;;;;;;;;;;;25.40;49.70;;;;;;5043755;28;19936;-72
2022/06/18 10:13:20;;;;;;;;;;;25.50;49.60;;;;;;5044141;28;19929;-71
2022/06/18 10:15:46;;;;;;;;;;;25.60;49.10;;;;;;5042698;28;20428;-71
2022/06/18 10:18:34;;;;;;;;;;;25.70;48.90;;;;;;5040632;28;19932;-71
2022/06/18 10:21:07;;;;;;;;;;;25.70;48.90;;;;;;5042632;28;19939;-65
2022/06/18 10:23:39;;;;;;;;;;;25.80;48.70;;;;;;5044199;28;19933;-70
2022/06/18 10:26:10;;;;;;;;;;;25.90;48.70;;;;;;5041701;28;19947;-66
2022/06/18 10:28:48;;;;;;;;;;;26.00;48.60;;;;;;5040105;28;19932;-67
2022/06/18 10:31:16;;;;;;;;;;;26.00;48.50;;;;;;5042216;28;19983;-70
2022/06/18 10:33:47;;;;;;;;;;;26.10;48.30;;;;;;5043222;28;19928;-68
2022/06/18 10:36:20;;;;;;;;;;;26.20;48.20;;;;;;5043326;28;19928;-68
2022/06/18 10:39:02;;;;;;;;;;;26.30;48.10;;;;;;5040268;28;19936;-69
2022/06/18 10:41:32;;;;;;;;;;;26.40;47.90;;;;;;5040038;28;19933;-69
2022/06/18 10:44:02;;;;;;;;;;;26.50;47.70;;;;;;5044563;28;20776;-70
2022/06/18 10:46:29;;;;;;;;;;;26.50;47.20;;;;;;5043732;28;19929;-69
2022/06/18 10:48:57;;;;;;;;;;;26.60;47.10;;;;;;5043569;28;19940;-68
2022/06/18 10:51:26;;;;;;;;;;;26.70;46.90;;;;;;5042531;28;19935;-65
2022/06/18 10:53:54;;;;;;;;;;;26.80;46.80;;;;;;5040083;28;19937;-66
2022/06/18 10:56:22;;;;;;;;;;;26.80;46.50;;;;;;5039627;28;19940;-66
2022/06/18 10:58:49;;;;;;;;;;;26.90;45.80;;;;;;5043732;28;19933;-65
2022/06/18 11:01:17;;;;;;;;;;;27.00;45.90;;;;;;5041624;28;19932;-69
2022/06/18 11:03:53;;;;;;;;;;;27.10;45.90;;;;;;5041795;28;19928;-67
2022/06/18 11:06:20;;;;;;;;;;;27.10;45.60;;;;;;5041595;28;19936;-67
2022/06/18 11:08:51;;;;;;;;;;;27.20;45.60;;;;;;5040767;28;19968;-69
2022/06/18 11:11:21;;;;;;;;;;;27.30;45.50;;;;;;5042352;28;19936;-67
2022/06/18 11:13:49;;;;;;;;;;;27.40;45.20;;;;;;5042713;28;19937;-68
2022/06/18 11:16:16;;;;;;;;;;;27.50;45.00;;;;;;5043654;28;19936;-68
2022/06/18 11:18:46;;;;;;;;;;;27.50;44.90;;;;;;5041877;28;21564;-67
2022/06/18 11:21:15;;;;;;;;;;;27.60;44.30;;;;;;5041189;28;19936;-69
2022/06/18 11:23:46;;;;;;;;;;;27.70;44.30;;;;;;5037221;28;19936;-68
2022/06/18 11:26:17;;;;;;;;;;;27.80;44.30;;;;;;5039906;28;19936;-68
2022/06/18 11:28:47;;;;;;;;;;;27.90;44.30;;;;;;5041505;28;19939;-68
2022/06/18 11:31:20;;;;;;;;;;;27.90;43.80;;;;;;5037880;28;19929;-71
2022/06/18 11:33:53;;;;;;;;;;;28.00;44.10;;;;;;5041582;28;19928;-69
2022/06/18 11:36:20;;;;;;;;;;;28.00;43.70;;;;;;5036084;28;19940;-66
2022/06/18 11:38:52;;;;;;;;;;;28.10;43.60;;;;;;5041693;28;19928;-71
2022/06/18 11:41:22;;;;;;;;;;;28.20;43.30;;;;;;5032903;28;19933;-67
2022/06/18 11:43:51;;;;;;;;;;;28.30;43.10;;;;;;5041407;28;19929;-68
2022/06/18 11:46:19;;;;;;;;;;;28.40;42.80;;;;;;5041941;28;19940;-68
2022/06/18 11:48:48;;;;;;;;;;;28.40;42.70;;;;;;5040906;28;20293;-67
2022/06/18 11:51:20;;;;;;;;;;;28.40;42.70;;;;;;5037146;28;19928;-68
2022/06/18 11:53:49;;;;;;;;;;;28.50;42.50;;;;;;5036671;28;19929;-69
2022/06/18 11:56:20;;;;;;;;;;;28.60;42.30;;;;;;5038505;28;20507;-66
2022/06/18 11:58:51;;;;;;;;;;;28.60;41.90;;;;;;5038188;28;19929;-66
2022/06/18 12:01:32;;;;;;;;;;;28.70;41.30;;;;;;5037805;28;19933;-67
2022/06/18 12:04:02;;;;;;;;;;;28.80;41.60;;;;;;5042000;28;20464;-70
2022/06/18 12:06:34;;;;;;;;;;;28.80;41.60;;;;;;5039374;28;19940;-68
2022/06/18 12:09:01;;;;;;;;;;;28.90;42.20;;;;;;5040761;28;19929;-67
2022/06/18 12:11:34;;;;;;;;;;;29.00;41.70;;;;;;5039815;28;19933;-67
2022/06/18 12:14:05;;;;;;;;;;;29.10;41.70;;;;;;5040320;28;19964;-68
2022/06/18 12:16:38;;;;;;;;;;;29.10;41.10;;;;;;5041698;28;19936;-67
2022/06/18 12:19:09;;;;;;;;;;;29.20;41.20;;;;;;5040944;28;19928;-69
2022/06/18 12:21:42;;;;;;;;;;;29.30;41.40;;;;;;5039617;28;19972;-67
2022/06/18 12:24:15;;;;;;;;;;;29.40;41.40;;;;;;5038571;28;19933;-68
2022/06/18 12:26:42;;;;;;;;;;;29.40;41.40;;;;;;5039871;28;19968;-68
2022/06/18 12:29:29;;;;;;;;;;;29.50;41.30;;;;;;5037870;28;19945;-67
2022/06/18 12:31:59;;;;;;;;;;;29.60;41.30;;;;;;5036580;28;19944;-68
2022/06/18 12:34:30;;;;;;;;;;;29.70;41.00;;;;;;5040152;28;19986;-68
2022/06/18 12:37:01;;;;;;;;;;;29.70;40.80;;;;;;5041406;28;19929;-68
2022/06/18 12:39:33;;;;;;;;;;;29.80;41.00;;;;;;5035564;28;19933;-68
2022/06/18 12:42:02;;;;;;;;;;;29.90;40.90;;;;;;5041195;28;19947;-69
2022/06/18 12:44:36;;;;;;;;;;;29.90;40.90;;;;;;5041631;28;19937;-69
2022/06/18 12:47:06;;;;;;;;;;;30.00;40.80;;;;;;5036852;28;19924;-70
2022/06/18 12:49:36;;;;;;;;;;;30.10;40.90;;;;;;5037074;28;19951;-70
2022/06/18 12:52:07;;;;;;;;;;;30.10;40.40;;;;;;5041036;28;19951;-70
2022/06/18 12:54:44;;;;;;;;;;;30.20;41.20;;;;;;5038347;28;19933;-73
2022/06/18 12:57:19;;;;;;;;;;;30.30;40.80;;;;;;5038784;28;19929;-69
2022/06/18 12:59:53;;;;;;;;;;;30.30;40.30;;;;;;5039505;28;19932;-71
2022/06/18 13:02:21;;;;;;;;;;;30.40;40.10;;;;;;5038547;28;19940;-66
2022/06/18 13:04:54;;;;;;;;;;;30.40;39.80;;;;;;5039359;28;19935;-69
2022/06/18 13:07:24;;;;;;;;;;;30.50;39.90;;;;;;5035557;28;19936;-68
2022/06/18 13:09:55;;;;;;;;;;;30.60;39.80;;;;;;5034819;28;19994;-67
2022/06/18 13:12:27;;;;;;;;;;;30.60;40.00;;;;;;5037309;28;19933;-70
2022/06/18 13:15:01;;;;;;;;;;;30.70;40.10;;;;;;5038120;28;19933;-68
2022/06/18 13:17:32;;;;;;;;;;;30.80;40.10;;;;;;5038095;28;19929;-69
2022/06/18 13:20:02;;;;;;;;;;;30.80;40.00;;;;;;5043803;28;19932;-66
2022/06/18 13:22:29;;;;;;;;;;;30.90;39.70;;;;;;5041579;28;19975;-68
2022/06/18 13:30:34;;;;;;;;;;;31.10;38.90;;;;;;5041270;28;19951;-70
2022/06/18 13:33:03;;;;;;;;;;;31.20;38.80;;;;;;5041800;28;19954;-69
2022/06/18 13:35:33;;;;;;;;;;;31.30;39.00;;;;;;5041777;28;19933;-70
2022/06/18 13:38:04;;;;;;;;;;;31.30;39.10;;;;;;5040436;28;19929;-70
2022/06/18 13:40:34;;;;;;;;;;;31.40;39.00;;;;;;5041214;28;20020;-72
2022/06/18 13:43:06;;;;;;;;;;;31.50;38.70;;;;;;5044559;28;21979;-69
2022/06/18 13:45:41;;;;;;;;;;;31.50;38.40;;;;;;5038817;28;19937;-69
2022/06/18 13:48:16;;;;;;;;;;;31.60;38.60;;;;;;5042175;28;20031;-68
2022/06/18 13:50:45;;;;;;;;;;;31.70;38.70;;;;;;5042864;28;20035;-67
2022/06/18 13:53:22;;;;;;;;;;;31.80;38.50;;;;;;5042930;28;20019;-69
2022/06/18 13:55:48;;;;;;;;;;;31.80;38.20;;;;;;5042919;28;19929;-68
2022/06/18 13:58:20;;;;;;;;;;;31.90;38.10;;;;;;5043394;28;19936;-69
2022/06/18 14:00:48;;;;;;;;;;;32.00;38.10;;;;;;5042181;28;20007;-72
2022/06/18 14:03:17;;;;;;;;;;;32.00;37.80;;;;;;5044522;28;19929;-70
2022/06/18 14:05:46;;;;;;;;;;;32.10;37.90;;;;;;5043085;28;19932;-73
2022/06/18 14:08:20;;;;;;;;;;;32.20;38.00;;;;;;5038687;28;19935;-68
2022/06/18 14:10:47;;;;;;;;;;;32.30;37.80;;;;;;5041946;28;20744;-73
2022/06/18 14:13:14;;;;;;;;;;;32.30;37.70;;;;;;5041820;28;19929;-69
2022/06/18 14:15:51;;;;;;;;;;;32.50;37.70;;;;;;5041984;28;20389;-68
2022/06/18 14:18:21;;;;;;;;;;;32.50;37.60;;;;;;5041500;28;20281;-69
2022/06/18 14:20:55;;;;;;;;;;;32.50;37.50;;;;;;5042405;28;20388;-70
2022/06/18 14:23:25;;;;;;;;;;;32.60;37.50;;;;;;5042319;28;19941;-69
2022/06/18 14:26:00;;;;;;;;;;;32.70;37.30;;;;;;5041758;28;19937;-68
2022/06/18 14:28:28;;;;;;;;;;;32.70;36.90;;;;;;5041207;28;19951;-69
2022/06/18 14:31:01;;;;;;;;;;;32.80;37.00;;;;;;5040583;28;19933;-68
2022/06/18 14:33:33;;;;;;;;;;;32.90;37.00;;;;;;5035804;28;19936;-71
2022/06/18 14:36:04;;;;;;;;;;;32.90;36.70;;;;;;5043590;28;19936;-70
2022/06/18 14:38:33;;;;;;;;;;;33.00;36.70;;;;;;5039850;28;19932;-70
2022/06/18 14:43:52;;;;;;;;;;;33.10;36.90;;;;;;5042548;28;20989;-72
2022/06/18 14:46:24;;;;;;;;;;;33.30;37.10;;;;;;5038099;28;19936;-70
2022/06/18 14:49:02;;;;;;;;;;;33.30;36.90;;;;;;5042125;28;19932;-69
2022/06/18 14:51:45;;;;;;;;;;;33.40;36.70;;;;;;5037059;28;19928;-70